createdAt,value
2022-12-25T00:04:24.597Z,90.98
2022-12-25T00:10:47.599Z,91.29
2022-12-25T00:17:07.681Z,91.44
2022-12-25T00:23:30.612Z,91.43
2022-12-25T00:29:50.618Z,91.38
2022-12-25T00:36:13.674Z,91.33
2022-12-25T00:42:33.575Z,91.27
2022-12-25T00:48:56.641Z,91.11
2022-12-25T00:55:16.641Z,90.97
2022-12-25T01:01:39.888Z,91.1
2022-12-25T01:07:59.609Z,91.25
2022-12-25T01:14:22.667Z,91.36
2022-12-25T01:20:42.557Z,91.27
2022-12-25T01:27:05.619Z,91.34
2022-12-25T01:33:25.598Z,91.49
2022-12-25T01:39:48.637Z,91.8
2022-12-25T01:46:08.618Z,91.97
2022-12-25T01:52:31.623Z,91.98
2022-12-25T01:58:51.618Z,91.97
2022-12-25T02:05:14.627Z,91.97
2022-12-25T02:11:34.630Z,91.98
2022-12-25T02:17:57.642Z,92.05
2022-12-25T02:24:17.578Z,92.09
2022-12-25T02:30:40.690Z,92.04
2022-12-25T02:37:00.596Z,92
2022-12-25T02:43:23.606Z,92.01
2022-12-25T02:49:43.608Z,92
2022-12-25T02:56:06.619Z,91.98
2022-12-25T03:02:26.644Z,91.89
2022-12-25T03:08:49.644Z,91.67
2022-12-25T03:15:09.611Z,91.49
2022-12-25T03:21:32.660Z,91.57
2022-12-25T03:27:52.652Z,91.61
2022-12-25T03:34:15.605Z,91.71
2022-12-25T03:40:35.600Z,91.83
2022-12-25T03:46:58.612Z,91.88
2022-12-25T03:53:18.578Z,91.97
2022-12-25T03:59:41.590Z,92
2022-12-25T04:06:01.607Z,91.92
2022-12-25T04:12:24.716Z,91.93
2022-12-25T04:18:44.643Z,91.98
2022-12-25T04:25:07.605Z,92.09
2022-12-25T04:41:33.512Z,91.97
2022-12-25T04:47:53.570Z,91.99
2022-12-25T04:54:16.600Z,91.91
2022-12-25T05:00:36.634Z,91.88
2022-12-25T05:06:59.634Z,91.79
2022-12-25T05:13:19.623Z,91.72
2022-12-25T05:19:42.612Z,91.81
2022-12-25T05:26:02.618Z,91.75
2022-12-25T05:32:25.595Z,91.5
2022-12-25T05:38:45.611Z,91.52
2022-12-25T05:45:08.632Z,91.54
2022-12-25T05:51:28.588Z,91.44
2022-12-25T05:57:51.645Z,91.23
2022-12-25T06:04:12.852Z,91.04
2022-12-25T06:10:34.586Z,90.98
2022-12-25T06:16:54.685Z,91.1
2022-12-25T06:23:17.731Z,91.06
2022-12-25T06:29:37.605Z,90.99
2022-12-25T06:36:00.613Z,90.92
2022-12-25T06:42:20.586Z,90.93
2022-12-25T06:48:43.586Z,90.91
2022-12-25T06:55:03.607Z,90.92
2022-12-25T07:01:26.674Z,90.83
2022-12-25T07:07:46.585Z,91
2022-12-25T07:14:09.658Z,90.89
2022-12-25T07:20:29.638Z,90.74
2022-12-25T07:26:52.588Z,90.78
2022-12-25T07:33:12.614Z,90.81
2022-12-25T07:39:35.623Z,90.96
2022-12-25T07:45:55.605Z,90.89
2022-12-25T07:52:18.655Z,90.81
2022-12-25T07:58:38.573Z,90.92
2022-12-25T08:05:01.596Z,90.91
2022-12-25T08:11:21.633Z,91.01
2022-12-25T08:17:44.570Z,91.39
2022-12-25T08:24:04.576Z,91.82
2022-12-25T08:30:27.661Z,92.15
2022-12-25T08:36:47.586Z,92.28
2022-12-25T08:43:10.608Z,92.38
2022-12-25T08:49:30.606Z,92.51
2022-12-25T08:55:53.596Z,92.43
2022-12-25T09:02:13.777Z,92.52
2022-12-25T09:08:38.855Z,92.54
2022-12-25T09:14:56.619Z,92.66
2022-12-25T09:21:19.594Z,92.75
2022-12-25T09:27:39.629Z,92.85
2022-12-25T09:34:02.603Z,92.92
2022-12-25T09:40:22.571Z,93.05
2022-12-25T09:46:45.733Z,93.11
2022-12-25T10:03:55.625Z,93.2
2022-12-25T10:10:18.589Z,93.15
2022-12-25T10:16:38.637Z,93.19
2022-12-25T10:23:01.625Z,93.16
2022-12-25T10:29:21.591Z,93.23
2022-12-25T10:35:44.611Z,93.37
2022-12-25T10:42:04.597Z,93.45
2022-12-25T10:48:27.620Z,93.54
2022-12-25T10:54:47.741Z,93.64
2022-12-25T11:01:10.868Z,93.78
2022-12-25T11:07:30.836Z,93.77
2022-12-25T11:13:53.648Z,93.79
2022-12-25T11:20:13.687Z,93.78
2022-12-25T11:26:36.598Z,93.62
2022-12-25T11:32:56.613Z,93.3
2022-12-25T11:39:19.600Z,93.15
2022-12-25T11:45:39.602Z,92.94
2022-12-25T11:52:02.594Z,92.58
2022-12-25T11:58:22.766Z,92.37
2022-12-25T12:04:45.604Z,92.2
2022-12-25T12:11:05.627Z,92.15
2022-12-25T12:17:29.263Z,92.08
2022-12-25T12:23:49.607Z,91.92
2022-12-25T12:30:12.616Z,91.83
2022-12-25T12:36:36.809Z,91.92
2022-12-25T12:42:55.613Z,92.04
2022-12-25T12:49:15.605Z,92.15
2022-12-25T12:55:38.615Z,92.28
2022-12-25T13:01:58.747Z,92.26
2022-12-25T13:08:21.597Z,92.39
2022-12-25T13:14:41.610Z,92.36
2022-12-25T13:21:04.587Z,92.34
2022-12-25T13:27:24.646Z,92.28
2022-12-25T13:33:47.629Z,92.36
2022-12-25T13:40:07.618Z,92.33
2022-12-25T13:46:30.695Z,92.37
2022-12-25T13:52:50.603Z,92.38
2022-12-25T13:59:13.607Z,92.43
2022-12-25T14:05:41.591Z,92.35
2022-12-25T14:11:56.597Z,92.38
2022-12-25T14:18:16.589Z,92.47
2022-12-25T14:24:39.607Z,92.53
2022-12-25T14:30:59.661Z,92.57
2022-12-25T14:37:22.572Z,92.57
2022-12-25T14:43:42.616Z,92.57
2022-12-25T14:50:05.630Z,92.62
2022-12-25T14:56:25.571Z,92.59
2022-12-25T15:02:48.764Z,92.49
2022-12-25T15:25:54.124Z,92.64
2022-12-25T15:32:13.579Z,92.51
2022-12-25T15:38:36.606Z,91.64
2022-12-25T15:44:56.604Z,90.36
2022-12-25T15:51:19.587Z,87.76
2022-12-25T15:57:39.578Z,85.58
2022-12-25T16:04:02.613Z,83.7
2022-12-25T16:10:22.678Z,82.21
2022-12-25T16:16:45.608Z,82.62
2022-12-25T16:23:05.599Z,82.17
2022-12-25T16:29:28.641Z,81.69
2022-12-25T16:35:48.596Z,81.73
2022-12-25T16:42:11.645Z,81.96
2022-12-25T16:48:31.588Z,81.3
2022-12-25T16:54:54.595Z,79.38
2022-12-25T17:01:14.629Z,79.34
2022-12-25T17:07:37.657Z,79.31
2022-12-25T17:13:57.640Z,79.75
2022-12-25T17:20:20.633Z,79.6
2022-12-25T17:26:40.630Z,79.89
2022-12-25T17:33:03.622Z,81.64
2022-12-25T17:39:23.592Z,80.4
2022-12-25T17:45:46.607Z,79.47
2022-12-25T17:52:06.594Z,79.14
2022-12-25T17:58:29.635Z,79.35
2022-12-25T18:04:49.585Z,78.88
2022-12-25T18:11:12.583Z,79.15
2022-12-25T18:17:32.608Z,78.99
2022-12-25T18:23:55.620Z,78.48
2022-12-25T18:30:15.556Z,78.62
2022-12-25T18:36:38.642Z,77.83
2022-12-25T18:43:03.076Z,77.79
2022-12-25T18:49:21.599Z,77.42
2022-12-25T18:55:41.608Z,77.26
2022-12-25T19:02:04.708Z,77.27
2022-12-25T19:08:24.612Z,76.85
2022-12-25T19:14:48.435Z,77.18
2022-12-25T19:21:07.584Z,77.25
2022-12-25T19:27:30.610Z,77.29
2022-12-25T19:33:50.610Z,77.15
2022-12-25T19:40:13.601Z,76.78
2022-12-25T19:46:33.594Z,76.31
2022-12-25T19:52:56.620Z,76.28
2022-12-25T19:59:16.610Z,76.08
2022-12-25T20:05:39.574Z,76.28
2022-12-25T20:11:59.616Z,76.07
2022-12-25T20:18:22.576Z,76.5
2022-12-25T20:24:42.584Z,76.84
2022-12-25T20:31:05.602Z,77.13
2022-12-25T20:46:36.900Z,77.96
2022-12-25T20:52:56.554Z,78.17
2022-12-25T20:59:19.593Z,78.46
2022-12-25T21:05:39.617Z,78.71
2022-12-25T21:12:02.566Z,78.85
2022-12-25T21:18:22.598Z,78.83
2022-12-25T21:24:45.638Z,78.55
2022-12-25T21:31:05.686Z,78.5
2022-12-25T21:37:28.607Z,78.14
2022-12-25T21:43:48.602Z,77.91
2022-12-25T21:50:11.583Z,78.08
2022-12-25T21:56:31.587Z,78.05
2022-12-25T22:02:54.750Z,77.61
2022-12-25T22:09:14.630Z,77.72
2022-12-25T22:15:37.624Z,77.54
2022-12-25T22:21:57.612Z,77.89
2022-12-25T22:28:20.566Z,77.81
2022-12-25T22:34:40.577Z,77.99
2022-12-25T22:41:03.650Z,78.14
2022-12-25T22:47:23.595Z,77.96
2022-12-25T22:53:46.565Z,77.88
2022-12-25T23:00:06.636Z,77.89
2022-12-25T23:23:03.611Z,77.86
2022-12-25T23:29:23.563Z,76.98
2022-12-25T23:35:46.597Z,77.09
2022-12-25T23:42:06.651Z,77.68
2022-12-25T23:48:29.586Z,77.83
2022-12-25T23:54:49.601Z,78.18
